sensor_id;sensor_type;location;lat;lon;timestamp;pressure;altitude;pressure_sealevel;temperature;humidity
17772;BME280;9010;32.624;-96.938;2022-10-31T00:01:44;98913.69;;;18.06;100.00
17772;BME280;9010;32.624;-96.938;2022-10-31T00:04:12;98912.56;;;17.99;100.00
17772;BME280;9010;32.624;-96.938;2022-10-31T00:06:40;98920.09;;;17.94;100.00
17772;BME280;9010;32.624;-96.938;2022-10-31T00:09:10;98917.00;;;17.89;100.00
17772;BME280;9010;32.624;-96.938;2022-10-31T00:11:38;98921.19;;;17.82;100.00
17772;BME280;9010;32.624;-96.938;2022-10-31T00:14:09;98924.63;;;17.73;100.00
17772;BME280;9010;32.624;-96.938;2022-10-31T00:16:39;98927.56;;;17.70;100.00
17772;BME280;9010;32.624;-96.938;2022-10-31T00:19:08;98930.72;;;17.64;100.00
17772;BME280;9010;32.624;-96.938;2022-10-31T00:21:36;98929.44;;;17.58;100.00
17772;BME280;9010;32.624;-96.938;2022-10-31T00:24:05;98935.88;;;17.56;100.00
17772;BME280;9010;32.624;-96.938;2022-10-31T00:26:33;98939.72;;;17.52;100.00
17772;BME280;9010;32.624;-96.938;2022-10-31T00:29:02;98944.44;;;17.48;100.00
17772;BME280;9010;32.624;-96.938;2022-10-31T00:31:30;98945.81;;;17.43;100.00
17772;BME280;9010;32.624;-96.938;2022-10-31T00:34:00;98940.31;;;17.35;100.00
17772;BME280;9010;32.624;-96.938;2022-10-31T00:36:29;98938.91;;;17.31;100.00
17772;BME280;9010;32.624;-96.938;2022-10-31T00:38:58;98940.38;;;17.23;100.00
17772;BME280;9010;32.624;-96.938;2022-10-31T00:41:27;98947.19;;;17.16;100.00
17772;BME280;9010;32.624;-96.938;2022-10-31T00:43:55;98950.97;;;17.14;100.00
17772;BME280;9010;32.624;-96.938;2022-10-31T00:46:24;98940.00;;;17.07;100.00
17772;BME280;9010;32.624;-96.938;2022-10-31T00:48:52;98951.13;;;17.01;100.00
17772;BME280;9010;32.624;-96.938;2022-10-31T00:51:22;98952.47;;;16.96;100.00
17772;BME280;9010;32.624;-96.938;2022-10-31T00:53:50;98956.34;;;16.92;100.00
17772;BME280;9010;32.624;-96.938;2022-10-31T00:56:18;98955.88;;;16.87;100.00
17772;BME280;9010;32.624;-96.938;2022-10-31T00:58:46;98952.88;;;16.80;100.00
17772;BME280;9010;32.624;-96.938;2022-10-31T01:01:15;98951.31;;;16.78;100.00
17772;BME280;9010;32.624;-96.938;2022-10-31T01:03:43;98955.47;;;16.71;100.00
17772;BME280;9010;32.624;-96.938;2022-10-31T01:06:12;98964.78;;;16.65;100.00
17772;BME280;9010;32.624;-96.938;2022-10-31T01:08:44;98961.66;;;16.60;100.00
17772;BME280;9010;32.624;-96.938;2022-10-31T01:11:18;98956.09;;;16.63;100.00
17772;BME280;9010;32.624;-96.938;2022-10-31T01:13:49;98966.72;;;16.63;100.00
17772;BME280;9010;32.624;-96.938;2022-10-31T01:16:18;98964.19;;;16.61;100.00
17772;BME280;9010;32.624;-96.938;2022-10-31T01:18:47;98975.75;;;16.60;100.00
17772;BME280;9010;32.624;-96.938;2022-10-31T01:21:17;98971.53;;;16.47;100.00
17772;BME280;9010;32.624;-96.938;2022-10-31T01:23:47;98971.69;;;16.45;100.00
17772;BME280;9010;32.624;-96.938;2022-10-31T01:26:17;98978.31;;;16.40;100.00
17772;BME280;9010;32.624;-96.938;2022-10-31T01:28:47;98980.22;;;16.38;100.00
17772;BME280;9010;32.624;-96.938;2022-10-31T01:31:17;98982.41;;;16.33;100.00
17772;BME280;9010;32.624;-96.938;2022-10-31T01:33:46;98976.41;;;16.31;100.00
17772;BME280;9010;32.624;-96.938;2022-10-31T01:36:18;98985.91;;;16.33;100.00
17772;BME280;9010;32.624;-96.938;2022-10-31T01:38:49;98983.66;;;16.29;100.00
17772;BME280;9010;32.624;-96.938;2022-10-31T01:41:19;98984.97;;;16.23;100.00
17772;BME280;9010;32.624;-96.938;2022-10-31T01:43:50;98996.66;;;16.21;100.00
17772;BME280;9010;32.624;-96.938;2022-10-31T01:46:22;98986.78;;;16.12;100.00
17772;BME280;9010;32.624;-96.938;2022-10-31T01:48:53;99000.16;;;16.10;100.00
17772;BME280;9010;32.624;-96.938;2022-10-31T01:51:25;98995.56;;;16.01;100.00
17772;BME280;9010;32.624;-96.938;2022-10-31T01:54:01;99007.03;;;16.01;100.00
17772;BME280;9010;32.624;-96.938;2022-10-31T01:56:30;99007.50;;;15.95;100.00
17772;BME280;9010;32.624;-96.938;2022-10-31T01:59:00;99005.94;;;15.93;100.00
17772;BME280;9010;32.624;-96.938;2022-10-31T02:01:29;99003.41;;;15.91;100.00
17772;BME280;9010;32.624;-96.938;2022-10-31T02:03:57;99005.84;;;15.94;100.00
17772;BME280;9010;32.624;-96.938;2022-10-31T02:06:32;99004.84;;;15.95;100.00
17772;BME280;9010;32.624;-96.938;2022-10-31T02:09:05;99004.38;;;15.90;100.00
17772;BME280;9010;32.624;-96.938;2022-10-31T02:11:35;99007.97;;;15.89;100.00
17772;BME280;9010;32.624;-96.938;2022-10-31T02:14:03;99013.66;;;15.85;100.00
17772;BME280;9010;32.624;-96.938;2022-10-31T02:16:32;99016.66;;;15.80;100.00
17772;BME280;9010;32.624;-96.938;2022-10-31T02:19:00;99020.41;;;15.78;100.00
17772;BME280;9010;32.624;-96.938;2022-10-31T02:21:32;99022.53;;;15.73;100.00
17772;BME280;9010;32.624;-96.938;2022-10-31T02:30:07;99019.53;;;15.66;100.00
17772;BME280;9010;32.624;-96.938;2022-10-31T02:33:02;99020.47;;;15.65;100.00
17772;BME280;9010;32.624;-96.938;2022-10-31T02:35:39;99025.91;;;15.64;100.00
17772;BME280;9010;32.624;-96.938;2022-10-31T02:38:16;99022.19;;;15.66;100.00
17772;BME280;9010;32.624;-96.938;2022-10-31T02:40:55;99024.31;;;15.61;100.00
17772;BME280;9010;32.624;-96.938;2022-10-31T02:43:31;99026.03;;;15.62;100.00
17772;BME280;9010;32.624;-96.938;2022-10-31T02:46:07;99027.19;;;15.58;100.00
17772;BME280;9010;32.624;-96.938;2022-10-31T02:48:39;99021.91;;;15.58;100.00
17772;BME280;9010;32.624;-96.938;2022-10-31T02:51:09;99018.53;;;15.56;100.00
17772;BME280;9010;32.624;-96.938;2022-10-31T02:53:39;99021.63;;;15.50;100.00
17772;BME280;9010;32.624;-96.938;2022-10-31T02:56:12;99023.56;;;15.48;100.00
17772;BME280;9010;32.624;-96.938;2022-10-31T02:58:44;99024.84;;;15.42;100.00
17772;BME280;9010;32.624;-96.938;2022-10-31T03:01:24;99036.53;;;15.40;100.00
17772;BME280;9010;32.624;-96.938;2022-10-31T03:04:16;99036.97;;;15.34;100.00
17772;BME280;9010;32.624;-96.938;2022-10-31T03:06:49;99041.56;;;15.32;100.00
17772;BME280;9010;32.624;-96.938;2022-10-31T03:09:25;99038.38;;;15.27;100.00
17772;BME280;9010;32.624;-96.938;2022-10-31T03:11:58;99034.16;;;15.24;100.00
17772;BME280;9010;32.624;-96.938;2022-10-31T03:14:33;99043.19;;;15.22;100.00
17772;BME280;9010;32.624;-96.938;2022-10-31T03:17:07;99041.16;;;15.25;100.00
17772;BME280;9010;32.624;-96.938;2022-10-31T03:19:41;99037.16;;;15.20;100.00
17772;BME280;9010;32.624;-96.938;2022-10-31T03:22:16;99047.41;;;15.24;100.00
17772;BME280;9010;32.624;-96.938;2022-10-31T03:24:45;99045.84;;;15.22;100.00
17772;BME280;9010;32.624;-96.938;2022-10-31T03:27:17;99055.00;;;15.18;100.00
17772;BME280;9010;32.624;-96.938;2022-10-31T03:29:47;99053.50;;;15.14;100.00
17772;BME280;9010;32.624;-96.938;2022-10-31T03:32:19;99057.38;;;15.10;100.00
17772;BME280;9010;32.624;-96.938;2022-10-31T03:34:54;99063.69;;;15.07;100.00
17772;BME280;9010;32.624;-96.938;2022-10-31T03:37:25;99059.59;;;15.03;100.00
17772;BME280;9010;32.624;-96.938;2022-10-31T03:39:55;99060.69;;;15.01;100.00
17772;BME280;9010;32.624;-96.938;2022-10-31T03:42:28;99062.34;;;15.02;100.00
17772;BME280;9010;32.624;-96.938;2022-10-31T03:45:00;99064.78;;;15.05;100.00
17772;BME280;9010;32.624;-96.938;2022-10-31T03:47:29;99075.72;;;15.00;100.00
17772;BME280;9010;32.624;-96.938;2022-10-31T03:50:00;99072.56;;;14.95;100.00
17772;BME280;9010;32.624;-96.938;2022-10-31T03:52:35;99071.94;;;14.91;100.00
17772;BME280;9010;32.624;-96.938;2022-10-31T03:55:07;99068.78;;;14.86;100.00
17772;BME280;9010;32.624;-96.938;2022-10-31T03:57:40;99081.25;;;14.84;100.00
17772;BME280;9010;32.624;-96.938;2022-10-31T04:00:11;99077.88;;;14.82;100.00
17772;BME280;9010;32.624;-96.938;2022-10-31T04:02:42;99077.25;;;14.79;100.00
17772;BME280;9010;32.624;-96.938;2022-10-31T04:05:15;99078.31;;;14.76;100.00
17772;BME280;9010;32.624;-96.938;2022-10-31T04:07:47;99053.19;;;14.58;100.00
17772;BME280;9010;32.624;-96.938;2022-10-31T04:10:19;99083.84;;;14.73;100.00
17772;BME280;9010;32.624;-96.938;2022-10-31T04:12:51;99085.97;;;14.68;100.00
17772;BME280;9010;32.624;-96.938;2022-10-31T04:15:22;99078.75;;;14.70;100.00
17772;BME280;9010;32.624;-96.938;2022-10-31T04:17:53;99072.53;;;14.71;100.00
17772;BME280;9010;32.624;-96.938;2022-10-31T04:20:32;99070.72;;;14.72;100.00
17772;BME280;9010;32.624;-96.938;2022-10-31T04:23:01;99071.56;;;14.72;100.00
17772;BME280;9010;32.624;-96.938;2022-10-31T04:25:29;99072.00;;;14.66;100.00
17772;BME280;9010;32.624;-96.938;2022-10-31T04:27:58;99079.44;;;14.61;100.00
17772;BME280;9010;32.624;-96.938;2022-10-31T04:30:26;99074.97;;;14.62;100.00
17772;BME280;9010;32.624;-96.938;2022-10-31T04:32:54;99079.22;;;14.64;100.00
17772;BME280;9010;32.624;-96.938;2022-10-31T04:35:22;99074.03;;;14.63;100.00
17772;BME280;9010;32.624;-96.938;2022-10-31T04:37:52;99074.16;;;14.61;100.00
17772;BME280;9010;32.624;-96.938;2022-10-31T04:40:20;99074.16;;;14.61;100.00
17772;BME280;9010;32.624;-96.938;2022-10-31T04:42:48;99072.31;;;14.62;100.00
17772;BME280;9010;32.624;-96.938;2022-10-31T04:45:17;99075.81;;;14.62;100.00
17772;BME280;9010;32.624;-96.938;2022-10-31T04:47:45;99077.22;;;14.55;100.00
17772;BME280;9010;32.624;-96.938;2022-10-31T04:50:13;99064.84;;;14.56;100.00
17772;BME280;9010;32.624;-96.938;2022-10-31T04:52:42;99074.59;;;14.55;100.00
17772;BME280;9010;32.624;-96.938;2022-10-31T04:55:14;99069.28;;;14.55;100.00
17772;BME280;9010;32.624;-96.938;2022-10-31T04:57:42;99065.66;;;14.56;100.00
17772;BME280;9010;32.624;-96.938;2022-10-31T05:00:12;99072.03;;;14.54;100.00
17772;BME280;9010;32.624;-96.938;2022-10-31T05:02:44;99067.06;;;14.49;100.00
17772;BME280;9010;32.624;-96.938;2022-10-31T05:05:13;99063.50;;;14.50;100.00
17772;BME280;9010;32.624;-96.938;2022-10-31T05:07:42;99073.94;;;14.52;100.00
17772;BME280;9010;32.624;-96.938;2022-10-31T05:10:15;99068.44;;;14.42;100.00
17772;BME280;9010;32.624;-96.938;2022-10-31T05:12:48;99072.28;;;14.38;100.00
17772;BME280;9010;32.624;-96.938;2022-10-31T05:15:17;99073.88;;;14.41;100.00
17772;BME280;9010;32.624;-96.938;2022-10-31T05:17:45;99078.31;;;14.40;100.00
17772;BME280;9010;32.624;-96.938;2022-10-31T05:20:14;99078.00;;;14.32;100.00
17772;BME280;9010;32.624;-96.938;2022-10-31T05:22:43;99077.88;;;14.33;100.00
17772;BME280;9010;32.624;-96.938;2022-10-31T05:25:13;99080.44;;;14.35;100.00
17772;BME280;9010;32.624;-96.938;2022-10-31T05:27:42;99074.59;;;14.30;100.00
17772;BME280;9010;32.624;-96.938;2022-10-31T05:30:12;99073.03;;;14.27;100.00
17772;BME280;9010;32.624;-96.938;2022-10-31T05:32:43;99064.44;;;14.24;100.00
17772;BME280;9010;32.624;-96.938;2022-10-31T05:35:15;99075.88;;;14.24;100.00
17772;BME280;9010;32.624;-96.938;2022-10-31T05:37:43;99077.75;;;14.22;100.00
17772;BME280;9010;32.624;-96.938;2022-10-31T05:40:14;99077.16;;;14.19;100.00
17772;BME280;9010;32.624;-96.938;2022-10-31T05:42:44;99064.75;;;14.19;100.00
17772;BME280;9010;32.624;-96.938;2022-10-31T05:45:14;99073.66;;;14.18;100.00
17772;BME280;9010;32.624;-96.938;2022-10-31T05:47:49;99073.75;;;14.17;100.00
17772;BME280;9010;32.624;-96.938;2022-10-31T05:50:17;99066.03;;;14.14;100.00
17772;BME280;9010;32.624;-96.938;2022-10-31T05:52:45;99072.69;;;14.07;100.00
17772;BME280;9010;32.624;-96.938;2022-10-31T05:55:15;99065.06;;;14.02;100.00
17772;BME280;9010;32.624;-96.938;2022-10-31T05:57:44;99064.75;;;13.94;100.00
17772;BME280;9010;32.624;-96.938;2022-10-31T06:00:12;99073.75;;;13.92;100.00
17772;BME280;9010;32.624;-96.938;2022-10-31T06:02:41;99079.03;;;13.92;100.00
17772;BME280;9010;32.624;-96.938;2022-10-31T06:05:09;99080.81;;;13.91;100.00
17772;BME280;9010;32.624;-96.938;2022-10-31T06:07:37;99066.66;;;13.92;100.00
17772;BME280;9010;32.624;-96.938;2022-10-31T06:10:07;99075.44;;;13.93;100.00
17772;BME280;9010;32.624;-96.938;2022-10-31T06:12:37;99065.09;;;13.90;100.00
17772;BME280;9010;32.624;-96.938;2022-10-31T06:15:07;99064.44;;;13.86;100.00
17772;BME280;9010;32.624;-96.938;2022-10-31T06:17:36;99065.94;;;13.90;100.00
17772;BME280;9010;32.624;-96.938;2022-10-31T06:20:06;99065.28;;;13.87;100.00
17772;BME280;9010;32.624;-96.938;2022-10-31T06:22:34;99064.13;;;13.91;100.00
17772;BME280;9010;32.624;-96.938;2022-10-31T06:25:03;99063.59;;;13.86;100.00
17772;BME280;9010;32.624;-96.938;2022-10-31T06:27:31;99065.72;;;13.80;100.00
17772;BME280;9010;32.624;-96.938;2022-10-31T06:30:01;99063.28;;;13.77;100.00
17772;BME280;9010;32.624;-96.938;2022-10-31T06:32:29;99063.59;;;13.73;100.00
17772;BME280;9010;32.624;-96.938;2022-10-31T06:34:57;99060.41;;;13.80;100.00
17772;BME280;9010;32.624;-96.938;2022-10-31T06:37:26;99067.69;;;13.77;100.00
17772;BME280;9010;32.624;-96.938;2022-10-31T06:39:54;99061.38;;;13.79;100.00
17772;BME280;9010;32.624;-96.938;2022-10-31T06:42:22;99064.22;;;13.76;100.00
17772;BME280;9010;32.624;-96.938;2022-10-31T06:44:51;99065.38;;;13.72;100.00
17772;BME280;9010;32.624;-96.938;2022-10-31T06:47:20;99060.19;;;13.71;100.00
17772;BME280;9010;32.624;-96.938;2022-10-31T06:49:49;99062.50;;;13.63;100.00
17772;BME280;9010;32.624;-96.938;2022-10-31T06:52:17;99052.91;;;13.62;100.00
17772;BME280;9010;32.624;-96.938;2022-10-31T06:54:45;99050.56;;;13.57;100.00
17772;BME280;9010;32.624;-96.938;2022-10-31T06:57:13;99049.19;;;13.52;100.00
17772;BME280;9010;32.624;-96.938;2022-10-31T06:59:41;99067.59;;;13.53;100.00
17772;BME280;9010;32.624;-96.938;2022-10-31T07:02:10;99062.31;;;13.53;100.00
17772;BME280;9010;32.624;-96.938;2022-10-31T07:04:40;99059.78;;;13.64;100.00
17772;BME280;9010;32.624;-96.938;2022-10-31T07:07:08;99052.47;;;13.55;100.00
17772;BME280;9010;32.624;-96.938;2022-10-31T07:09:36;99054.25;;;13.55;100.00
17772;BME280;9010;32.624;-96.938;2022-10-31T07:12:05;99057.75;;;13.55;100.00
17772;BME280;9010;32.624;-96.938;2022-10-31T07:14:33;99046.44;;;13.53;100.00
17772;BME280;9010;32.624;-96.938;2022-10-31T07:17:01;99062.06;;;13.44;100.00
17772;BME280;9010;32.624;-96.938;2022-10-31T07:19:30;99057.84;;;13.41;100.00
17772;BME280;9010;32.624;-96.938;2022-10-31T07:21:59;99063.00;;;13.43;100.00
17772;BME280;9010;32.624;-96.938;2022-10-31T07:24:28;99058.38;;;13.46;100.00
17772;BME280;9010;32.624;-96.938;2022-10-31T07:26:56;99053.19;;;13.45;100.00
17772;BME280;9010;32.624;-96.938;2022-10-31T07:29:24;99061.22;;;13.43;100.00
17772;BME280;9010;32.624;-96.938;2022-10-31T07:31:53;99050.66;;;13.43;100.00
17772;BME280;9010;32.624;-96.938;2022-10-31T07:34:21;99056.97;;;13.41;100.00
17772;BME280;9010;32.624;-96.938;2022-10-31T07:36:51;99050.53;;;13.32;100.00
17772;BME280;9010;32.624;-96.938;2022-10-31T07:39:21;99049.19;;;13.39;100.00
17772;BME280;9010;32.624;-96.938;2022-10-31T07:41:49;99051.91;;;13.38;100.00
17772;BME280;9010;32.624;-96.938;2022-10-31T07:44:17;99049.56;;;13.33;100.00
17772;BME280;9010;32.624;-96.938;2022-10-31T07:46:45;99052.31;;;13.32;100.00
17772;BME280;9010;32.624;-96.938;2022-10-31T07:49:13;99048.00;;;13.31;100.00
17772;BME280;9010;32.624;-96.938;2022-10-31T07:51:42;99050.31;;;13.35;100.00
17772;BME280;9010;32.624;-96.938;2022-10-31T07:54:10;99048.00;;;13.31;100.00
17772;BME280;9010;32.624;-96.938;2022-10-31T07:56:39;99054.22;;;13.30;100.00
17772;BME280;9010;32.624;-96.938;2022-10-31T07:59:08;99048.06;;;13.29;100.00
17772;BME280;9010;32.624;-96.938;2022-10-31T08:01:36;99049.56;;;13.33;100.00
17772;BME280;9010;32.624;-96.938;2022-10-31T08:04:04;99047.69;;;13.35;100.00
17772;BME280;9010;32.624;-96.938;2022-10-31T08:06:32;99045.16;;;13.34;100.00
17772;BME280;9010;32.624;-96.938;2022-10-31T08:09:02;99050.53;;;13.32;100.00
17772;BME280;9010;32.624;-96.938;2022-10-31T08:11:30;99041.00;;;13.30;100.00
17772;BME280;9010;32.624;-96.938;2022-10-31T08:14:00;99051.69;;;13.28;100.00
17772;BME280;9010;32.624;-96.938;2022-10-31T08:16:28;99048.28;;;13.26;100.00
17772;BME280;9010;32.624;-96.938;2022-10-31T08:18:56;99043.00;;;13.26;100.00
17772;BME280;9010;32.624;-96.938;2022-10-31T08:21:24;99055.47;;;13.24;100.00
17772;BME280;9010;32.624;-96.938;2022-10-31T08:23:52;99051.03;;;13.24;100.00
17772;BME280;9010;32.624;-96.938;2022-10-31T08:26:21;99051.13;;;13.23;100.00
17772;BME280;9010;32.624;-96.938;2022-10-31T08:28:49;99047.84;;;13.19;100.00
17772;BME280;9010;32.624;-96.938;2022-10-31T08:31:19;99058.41;;;13.19;100.00
17772;BME280;9010;32.624;-96.938;2022-10-31T08:33:47;99054.38;;;13.14;100.00
17772;BME280;9010;32.624;-96.938;2022-10-31T08:36:15;99054.38;;;13.14;100.00
17772;BME280;9010;32.624;-96.938;2022-10-31T08:38:43;99049.94;;;13.14;100.00
17772;BME280;9010;32.624;-96.938;2022-10-31T08:41:12;99050.03;;;13.13;100.00
17772;BME280;9010;32.624;-96.938;2022-10-31T08:43:40;99057.13;;;13.12;100.00
17772;BME280;9010;32.624;-96.938;2022-10-31T08:46:08;99045.44;;;13.02;100.00
17772;BME280;9010;32.624;-96.938;2022-10-31T08:48:38;99059.22;;;13.07;100.00
17772;BME280;9010;32.624;-96.938;2022-10-31T08:51:07;99066.38;;;13.05;100.00
17772;BME280;9010;32.624;-96.938;2022-10-31T08:53:36;99049.88;;;13.02;100.00
17772;BME280;9010;32.624;-96.938;2022-10-31T08:56:05;99049.50;;;13.08;100.00
17772;BME280;9010;32.624;-96.938;2022-10-31T08:58:33;99052.97;;;13.08;100.00
17772;BME280;9010;32.624;-96.938;2022-10-31T09:01:01;99048.66;;;13.07;100.00
17772;BME280;9010;32.624;-96.938;2022-10-31T09:03:30;99057.03;;;13.00;100.00
17772;BME280;9010;32.624;-96.938;2022-10-31T09:06:02;99050.94;;;12.99;100.00
17772;BME280;9010;32.624;-96.938;2022-10-31T09:08:35;99051.75;;;13.00;100.00
17772;BME280;9010;32.624;-96.938;2022-10-31T09:11:04;99051.00;;;12.98;100.00
17772;BME280;9010;32.624;-96.938;2022-10-31T09:13:32;99051.97;;;12.97;100.00
17772;BME280;9010;32.624;-96.938;2022-10-31T09:16:01;99051.00;;;12.98;100.00
17772;BME280;9010;32.624;-96.938;2022-10-31T09:18:29;99042.88;;;12.88;100.00
17772;BME280;9010;32.624;-96.938;2022-10-31T09:20:58;99054.88;;;12.92;100.00
17772;BME280;9010;32.624;-96.938;2022-10-31T09:23:28;99051.72;;;12.87;100.00
17772;BME280;9010;32.624;-96.938;2022-10-31T09:26:00;99045.50;;;12.88;100.00
17772;BME280;9010;32.624;-96.938;2022-10-31T09:28:29;99055.19;;;12.88;100.00
17772;BME280;9010;32.624;-96.938;2022-10-31T09:30:57;99059.50;;;12.89;100.00
17772;BME280;9010;32.624;-96.938;2022-10-31T09:33:26;99057.66;;;12.91;100.00
17772;BME280;9010;32.624;-96.938;2022-10-31T09:35:54;99055.94;;;12.90;100.00
17772;BME280;9010;32.624;-96.938;2022-10-31T09:38:22;99059.50;;;12.89;100.00
17772;BME280;9010;32.624;-96.938;2022-10-31T09:40:55;99067.34;;;12.90;100.00
17772;BME280;9010;32.624;-96.938;2022-10-31T09:43:35;99057.66;;;12.91;100.00
17772;BME280;9010;32.624;-96.938;2022-10-31T09:46:10;99068.19;;;12.91;100.00
17772;BME280;9010;32.624;-96.938;2022-10-31T09:48:52;99064.59;;;12.92;100.00
17772;BME280;9010;32.624;-96.938;2022-10-31T09:51:27;99066.41;;;12.91;100.00
17772;BME280;9010;32.624;-96.938;2022-10-31T09:54:00;99061.59;;;12.84;100.00
17772;BME280;9010;32.624;-96.938;2022-10-31T09:56:31;99063.31;;;12.85;100.00
17772;BME280;9010;32.624;-96.938;2022-10-31T09:59:02;99057.19;;;12.84;100.00
17772;BME280;9010;32.624;-96.938;2022-10-31T10:01:39;99057.19;;;12.84;100.00
17772;BME280;9010;32.624;-96.938;2022-10-31T10:04:20;99070.50;;;12.83;100.00
17772;BME280;9010;32.624;-96.938;2022-10-31T10:06:55;99070.69;;;12.80;100.00
17772;BME280;9010;32.624;-96.938;2022-10-31T10:09:26;99072.56;;;12.78;100.00
17772;BME280;9010;32.624;-96.938;2022-10-31T10:12:05;99074.16;;;12.80;100.00
17772;BME280;9010;32.624;-96.938;2022-10-31T10:14:53;99075.78;;;12.83;100.00
17772;BME280;9010;32.624;-96.938;2022-10-31T10:17:31;99076.78;;;12.80;100.00
17772;BME280;9010;32.624;-96.938;2022-10-31T10:20:21;99072.75;;;12.75;100.00
17772;BME280;9010;32.624;-96.938;2022-10-31T10:23:06;99087.44;;;12.79;100.00
17772;BME280;9010;32.624;-96.938;2022-10-31T10:25:39;99085.56;;;12.81;100.00
17772;BME280;9010;32.624;-96.938;2022-10-31T10:28:17;99084.63;;;12.82;100.00
17772;BME280;9010;32.624;-96.938;2022-10-31T10:30:50;99089.44;;;12.75;100.00
17772;BME280;9010;32.624;-96.938;2022-10-31T10:33:22;99086.78;;;12.75;100.00
17772;BME280;9010;32.624;-96.938;2022-10-31T10:35:54;99092.19;;;12.74;100.00
17772;BME280;9010;32.624;-96.938;2022-10-31T10:38:28;99082.25;;;12.77;100.00
17772;BME280;9010;32.624;-96.938;2022-10-31T10:40:58;99085.75;;;12.78;100.00
17772;BME280;9010;32.624;-96.938;2022-10-31T10:43:33;99072.50;;;12.65;100.00
17772;BME280;9010;32.624;-96.938;2022-10-31T10:46:18;99091.72;;;12.67;100.00
17772;BME280;9010;32.624;-96.938;2022-10-31T10:49:16;99096.31;;;12.63;100.00
17772;BME280;9010;32.624;-96.938;2022-10-31T10:51:47;99095.69;;;12.60;100.00
17772;BME280;9010;32.624;-96.938;2022-10-31T10:57:18;99103.50;;;12.61;100.00
17772;BME280;9010;32.624;-96.938;2022-10-31T10:59:51;99101.03;;;12.58;100.00
17772;BME280;9010;32.624;-96.938;2022-10-31T11:02:23;99107.44;;;12.54;100.00
17772;BME280;9010;32.624;-96.938;2022-10-31T11:04:53;99116.13;;;12.56;100.00
17772;BME280;9010;32.624;-96.938;2022-10-31T11:07:22;99114.97;;;12.60;100.00
17772;BME280;9010;32.624;-96.938;2022-10-31T11:09:50;99116.13;;;12.56;100.00
17772;BME280;9010;32.624;-96.938;2022-10-31T11:12:22;99103.22;;;12.52;100.00
17772;BME280;9010;32.624;-96.938;2022-10-31T11:14:54;99113.50;;;12.56;100.00
17772;BME280;9010;32.624;-96.938;2022-10-31T11:17:28;99111.41;;;12.61;100.00
17772;BME280;9010;32.624;-96.938;2022-10-31T11:20:02;99107.06;;;12.60;100.00
17772;BME280;9010;32.624;-96.938;2022-10-31T11:22:31;99110.47;;;12.62;100.00
17772;BME280;9010;32.624;-96.938;2022-10-31T11:24:59;99109.06;;;12.57;100.00
17772;BME280;9010;32.624;-96.938;2022-10-31T11:27:27;99120.75;;;12.53;100.00
17772;BME280;9010;32.624;-96.938;2022-10-31T11:30:07;99114.81;;;12.49;100.00
17772;BME280;9010;32.624;-96.938;2022-10-31T11:32:35;99128.19;;;12.46;100.00
17772;BME280;9010;32.624;-96.938;2022-10-31T11:35:09;99126.56;;;12.44;100.00
17772;BME280;9010;32.624;-96.938;2022-10-31T11:37:42;99123.88;;;12.45;100.00
17772;BME280;9010;32.624;-96.938;2022-10-31T11:40:17;99121.41;;;12.42;100.00
17772;BME280;9010;32.624;-96.938;2022-10-31T11:42:46;99129.13;;;12.45;100.00
17772;BME280;9010;32.624;-96.938;2022-10-31T11:45:18;99137.25;;;12.42;100.00
17772;BME280;9010;32.624;-96.938;2022-10-31T11:47:56;99139.03;;;12.42;100.00
17772;BME280;9010;32.624;-96.938;2022-10-31T11:50:27;99147.00;;;12.40;100.00
17772;BME280;9010;32.624;-96.938;2022-10-31T11:52:56;99141.56;;;12.43;100.00
17772;BME280;9010;32.624;-96.938;2022-10-31T11:55:31;99140.91;;;12.40;100.00
17772;BME280;9010;32.624;-96.938;2022-10-31T11:58:00;99142.50;;;12.42;100.00
17772;BME280;9010;32.624;-96.938;2022-10-31T12:00:31;99144.28;;;12.42;100.00
17772;BME280;9010;32.624;-96.938;2022-10-31T12:03:26;99141.75;;;12.40;100.00
17772;BME280;9010;32.624;-96.938;2022-10-31T12:06:00;99134.41;;;12.45;100.00
17772;BME280;9010;32.624;-96.938;2022-10-31T12:08:31;99150.06;;;12.48;100.00
17772;BME280;9010;32.624;-96.938;2022-10-31T12:11:06;99150.97;;;12.47;100.00
17772;BME280;9010;32.624;-96.938;2022-10-31T12:13:42;99150.97;;;12.47;100.00
17772;BME280;9010;32.624;-96.938;2022-10-31T12:16:22;99147.59;;;12.45;100.00
17772;BME280;9010;32.624;-96.938;2022-10-31T12:19:00;99146.00;;;12.43;100.00
17772;BME280;9010;32.624;-96.938;2022-10-31T12:21:47;99162.84;;;12.40;100.00
17772;BME280;9010;32.624;-96.938;2022-10-31T12:27:24;99176.25;;;12.51;100.00
17772;BME280;9010;32.624;-96.938;2022-10-31T12:30:13;99173.97;;;12.45;100.00
17772;BME280;9010;32.624;-96.938;2022-10-31T12:33:03;99170.28;;;12.48;100.00
17772;BME280;9010;32.624;-96.938;2022-10-31T12:35:44;99178.28;;;12.46;100.00
17772;BME280;9010;32.624;-96.938;2022-10-31T12:38:37;99172.06;;;12.47;100.00
17772;BME280;9010;32.624;-96.938;2022-10-31T12:41:20;99172.81;;;12.49;100.00
17772;BME280;9010;32.624;-96.938;2022-10-31T12:43:57;99175.66;;;12.46;100.00
17772;BME280;9010;32.624;-96.938;2022-10-31T12:46:41;99187.72;;;12.36;100.00
17772;BME280;9010;32.624;-96.938;2022-10-31T12:49:42;99185.06;;;12.36;100.00
17772;BME280;9010;32.624;-96.938;2022-10-31T12:52:25;99184.16;;;12.37;100.00
17772;BME280;9010;32.624;-96.938;2022-10-31T12:55:08;99185.81;;;12.38;100.00
17772;BME280;9010;32.624;-96.938;2022-10-31T12:57:42;99191.94;;;12.39;100.00
17772;BME280;9010;32.624;-96.938;2022-10-31T13:00:13;99184.97;;;12.38;100.00
17772;BME280;9010;32.624;-96.938;2022-10-31T13:02:48;99192.31;;;12.33;100.00
17772;BME280;9010;32.624;-96.938;2022-10-31T13:05:24;99198.72;;;12.29;100.00
17772;BME280;9010;32.624;-96.938;2022-10-31T13:07:58;99205.97;;;12.25;100.00
17772;BME280;9010;32.624;-96.938;2022-10-31T13:10:32;99207.81;;;12.23;100.00
17772;BME280;9010;32.624;-96.938;2022-10-31T13:13:06;99214.72;;;12.26;100.00
17772;BME280;9010;32.624;-96.938;2022-10-31T13:15:45;99214.63;;;12.27;100.00